Time;durP1;ratioP1;P1;durP2;ratioP2;P2;SDS_P1;SDS_P2;PMS_P1;PMS_P2;Temp;Humidity;BMP_temperature;BMP_pressure;BME280_temperature;BME280_humidity;BME280_pressure;Samples;Min_cycle;Max_cycle;Signal;HPM_P1;HPM_P2
2020/12/31 00:02:14;;;;;;;8.70;4.93;;;7.30;67.20;;;;;;2173201;57;20998;-85
2020/12/31 00:04:56;;;;;;;9.40;5.05;;;7.30;67.50;;;;;;2174960;57;21067;-83
2020/12/31 00:10:34;;;;;;;9.20;5.40;;;7.30;67.50;;;;;;2372573;57;21420;-82
2020/12/31 00:13:23;;;;;;;8.10;4.87;;;7.30;67.60;;;;;;2380850;57;20995;-85
2020/12/31 00:16:10;;;;;;;11.45;6.18;;;7.30;67.50;;;;;;2380224;56;21030;-85
2020/12/31 00:18:49;;;;;;;12.13;6.00;;;7.30;67.10;;;;;;2173978;57;21032;-83
2020/12/31 00:21:18;;;;;;;11.32;6.32;;;7.30;67.10;;;;;;2172513;57;22106;-82
2020/12/31 00:23:45;;;;;;;12.82;6.97;;;7.30;67.10;;;;;;2174915;57;21043;-84
2020/12/31 00:26:12;;;;;;;12.07;6.43;;;7.40;67.20;;;;;;2373859;57;20994;-84
2020/12/31 00:28:57;;;;;;;12.45;6.82;;;7.30;67.00;;;;;;2387328;57;21731;-84
2020/12/31 00:31:24;;;;;;;12.43;6.60;;;7.30;66.80;;;;;;2413780;55;21024;-83
2020/12/31 00:34:21;;;;;;;10.55;6.18;;;7.30;66.80;;;;;;2401463;56;20963;-82
2020/12/31 00:37:13;;;;;;;11.63;6.45;;;7.20;66.90;;;;;;2382780;57;21085;-82
2020/12/31 00:39:49;;;;;;;12.27;6.25;;;7.20;66.70;;;;;;2200108;56;20940;-84
2020/12/31 00:42:19;;;;;;;10.98;6.32;;;7.20;66.80;;;;;;2386679;56;22169;-84
2020/12/31 00:44:51;;;;;;;10.30;5.90;;;7.20;66.80;;;;;;2205749;56;21539;-82
2020/12/31 00:47:21;;;;;;;8.77;5.43;;;7.20;66.80;;;;;;2408986;57;20990;-83
2020/12/31 00:49:47;;;;;;;9.52;5.78;;;7.10;66.50;;;;;;2426586;56;20980;-82
2020/12/31 00:52:14;;;;;;;10.45;6.22;;;7.10;66.40;;;;;;2427015;56;21023;-83
2020/12/31 00:54:43;;;;;;;11.12;6.07;;;7.10;66.40;;;;;;2426764;56;20983;-83
2020/12/31 00:57:12;;;;;;;10.25;5.80;;;7.00;66.10;;;;;;2426758;56;21278;-83
2020/12/31 00:59:39;;;;;;;10.82;5.90;;;7.00;66.20;;;;;;2208854;56;21051;-82
2020/12/31 01:02:05;;;;;;;11.07;6.05;;;7.00;66.30;;;;;;2415079;56;21559;-81
2020/12/31 01:04:31;;;;;;;11.70;6.40;;;6.90;66.30;;;;;;2177583;58;20956;-82
2020/12/31 01:06:58;;;;;;;9.27;5.03;;;6.90;66.20;;;;;;2398256;56;20951;-84
2020/12/31 01:09:24;;;;;;;11.38;5.87;;;6.80;66.10;;;;;;2208564;56;20972;-84
2020/12/31 01:11:54;;;;;;;10.13;5.65;;;6.80;66.10;;;;;;2427252;56;20959;-82
2020/12/31 01:14:20;;;;;;;11.68;6.00;;;6.80;66.10;;;;;;2199974;56;20980;-83
2020/12/31 01:16:49;;;;;;;12.77;6.70;;;6.70;66.10;;;;;;2426532;56;21840;-83
2020/12/31 01:19:16;;;;;;;13.95;6.85;;;6.70;66.10;;;;;;2426877;56;20956;-82
2020/12/31 01:21:45;;;;;;;14.35;6.80;;;6.60;66.10;;;;;;2208890;56;20972;-84
2020/12/31 01:24:13;;;;;;;8.98;4.90;;;6.60;66.10;;;;;;2200362;56;22268;-84
2020/12/31 01:26:40;;;;;;;9.38;5.10;;;6.50;66.10;;;;;;2426140;56;21012;-84
2020/12/31 01:29:06;;;;;;;9.25;4.72;;;6.50;66.10;;;;;;2207235;56;21028;-82
2020/12/31 01:31:33;;;;;;;12.68;6.30;;;6.40;66.00;;;;;;2405871;57;20948;-83
2020/12/31 01:34:00;;;;;;;13.65;6.90;;;6.40;66.00;;;;;;2204142;57;21554;-83
2020/12/31 01:36:26;;;;;;;9.52;4.90;;;6.40;66.10;;;;;;2203146;58;21000;-83
2020/12/31 01:38:53;;;;;;;8.00;4.35;;;6.30;66.00;;;;;;2408799;56;20960;-84
2020/12/31 01:41:24;;;;;;;9.88;4.68;;;6.20;65.90;;;;;;2411605;57;21008;-81
2020/12/31 01:44:08;;;;;;;8.68;4.68;;;6.20;65.90;;;;;;2199849;57;20999;-82
2020/12/31 01:46:37;;;;;;;10.98;5.15;;;6.20;65.80;;;;;;2419944;56;20940;-85
2020/12/31 01:49:05;;;;;;;11.15;5.28;;;6.10;66.10;;;;;;2419255;57;20940;-83
2020/12/31 01:51:32;;;;;;;11.38;5.80;;;6.10;66.20;;;;;;2418347;57;20968;-82
2020/12/31 01:53:58;;;;;;;10.15;5.53;;;6.00;66.20;;;;;;2187479;57;20926;-82
2020/12/31 01:56:29;;;;;;;10.18;5.80;;;6.00;66.20;;;;;;2407576;57;21012;-82
2020/12/31 01:58:56;;;;;;;8.23;4.35;;;5.90;66.10;;;;;;2199800;57;20973;-82
2020/12/31 02:01:23;;;;;;;9.95;5.20;;;5.90;66.30;;;;;;2421621;57;20972;-83
2020/12/31 02:03:50;;;;;;;8.25;4.20;;;5.90;66.40;;;;;;2422087;57;21031;-82
2020/12/31 02:06:17;;;;;;;9.68;5.25;;;5.80;66.40;;;;;;2204770;57;22193;-84
2020/12/31 02:08:44;;;;;;;7.97;4.47;;;5.80;66.50;;;;;;2203725;58;22140;-82
2020/12/31 02:11:14;;;;;;;8.10;4.65;;;5.70;66.50;;;;;;2176723;57;21907;-81
2020/12/31 02:13:41;;;;;;;9.10;4.90;;;5.70;66.60;;;;;;2170753;58;20958;-83
2020/12/31 02:16:14;;;;;;;9.77;5.28;;;5.70;66.60;;;;;;2409109;57;21017;-84
2020/12/31 02:19:00;;;;;;;9.20;4.82;;;5.70;66.60;;;;;;2197348;57;20961;-83
2020/12/31 02:21:30;;;;;;;8.95;4.80;;;5.60;66.40;;;;;;2196459;57;21044;-84
2020/12/31 02:23:57;;;;;;;8.55;4.70;;;5.60;66.70;;;;;;2197297;57;20936;-82
2020/12/31 02:26:25;;;;;;;10.63;4.50;;;5.60;66.80;;;;;;2419353;57;22174;-82
2020/12/31 02:28:52;;;;;;;9.05;4.80;;;5.60;66.90;;;;;;2204368;58;20960;-83
2020/12/31 02:31:18;;;;;;;9.65;4.68;;;5.60;67.00;;;;;;2409948;56;21021;-83
2020/12/31 02:33:48;;;;;;;9.73;4.65;;;5.60;67.10;;;;;;2406678;57;21033;-82
2020/12/31 02:36:16;;;;;;;9.57;4.65;;;5.50;67.00;;;;;;2175667;57;20977;-84
2020/12/31 02:38:43;;;;;;;7.05;3.78;;;5.50;67.10;;;;;;2194774;56;21394;-81
2020/12/31 02:41:09;;;;;;;11.27;4.68;;;5.50;67.10;;;;;;2405553;56;21000;-83
2020/12/31 02:43:35;;;;;;;8.00;4.47;;;5.50;67.20;;;;;;2196979;56;20973;-82
2020/12/31 02:46:20;;;;;;;6.95;3.50;;;5.50;67.30;;;;;;2192055;57;20964;-81
2020/12/31 02:48:49;;;;;;;7.90;4.00;;;5.50;67.30;;;;;;2406355;56;21750;-82
2020/12/31 02:51:16;;;;;;;7.12;3.92;;;5.50;67.20;;;;;;2195465;56;20949;-81
2020/12/31 02:53:42;;;;;;;7.90;4.32;;;5.50;67.30;;;;;;2192911;56;20988;-82
2020/12/31 02:56:10;;;;;;;9.18;4.00;;;5.50;67.20;;;;;;2192926;57;20972;-82
2020/12/31 02:58:37;;;;;;;8.27;4.07;;;5.50;67.40;;;;;;2406428;57;21587;-82
2020/12/31 03:01:04;;;;;;;8.27;4.25;;;5.50;67.50;;;;;;2192245;57;20996;-82
2020/12/31 03:03:31;;;;;;;7.32;3.90;;;5.50;67.50;;;;;;2407301;56;20964;-82
2020/12/31 03:05:57;;;;;;;8.30;4.50;;;5.60;67.60;;;;;;2407365;57;21025;-82
2020/12/31 03:08:24;;;;;;;9.07;4.57;;;5.60;67.60;;;;;;2185768;57;20957;-83
2020/12/31 03:10:51;;;;;;;9.80;3.90;;;5.60;67.50;;;;;;2405820;56;21016;-82
2020/12/31 03:13:17;;;;;;;8.25;4.40;;;5.60;67.50;;;;;;2191611;56;22188;-82
2020/12/31 03:15:44;;;;;;;8.52;4.82;;;5.60;67.40;;;;;;2195492;57;21055;-85
2020/12/31 03:18:10;;;;;;;8.68;4.35;;;5.60;67.30;;;;;;2188691;57;21039;-82
2020/12/31 03:20:43;;;;;;;7.65;3.95;;;5.60;67.30;;;;;;2405621;56;20964;-83
2020/12/31 03:23:13;;;;;;;6.70;3.83;;;5.60;67.40;;;;;;2193059;56;21032;-83
2020/12/31 03:25:39;;;;;;;7.68;4.53;;;5.60;67.40;;;;;;2407287;56;21009;-81
2020/12/31 03:28:05;;;;;;;7.03;4.10;;;5.60;67.30;;;;;;2195351;57;21017;-83
2020/12/31 03:30:32;;;;;;;5.70;3.40;;;5.60;67.30;;;;;;2191808;56;20972;-82
2020/12/31 03:32:59;;;;;;;6.32;3.90;;;5.70;67.50;;;;;;2192549;56;21790;-84
2020/12/31 03:35:25;;;;;;;7.18;3.62;;;5.60;67.40;;;;;;2408803;56;21050;-85
2020/12/31 03:37:51;;;;;;;6.78;3.50;;;5.70;67.40;;;;;;2407375;56;21013;-85
2020/12/31 03:40:18;;;;;;;7.12;4.22;;;5.60;67.20;;;;;;2193130;56;21019;-82
2020/12/31 03:42:44;;;;;;;5.47;3.17;;;5.60;67.20;;;;;;2193706;57;20964;-82
2020/12/31 03:45:10;;;;;;;4.85;2.83;;;5.70;67.30;;;;;;2193103;56;20958;-84
2020/12/31 03:47:37;;;;;;;5.47;3.12;;;5.70;67.30;;;;;;2193030;56;20960;-82
2020/12/31 03:50:05;;;;;;;6.20;3.03;;;5.70;67.20;;;;;;2192371;56;21814;-81
2020/12/31 03:52:31;;;;;;;7.05;2.90;;;5.70;67.30;;;;;;2406565;56;21044;-82
2020/12/31 03:54:58;;;;;;;5.97;3.03;;;5.70;67.30;;;;;;2192949;56;20972;-82
2020/12/31 03:57:24;;;;;;;6.65;3.20;;;5.70;67.40;;;;;;2195909;56;20976;-83
2020/12/31 03:59:50;;;;;;;6.00;3.20;;;5.70;67.40;;;;;;2192355;56;21075;-82
2020/12/31 04:02:16;;;;;;;5.62;2.83;;;5.70;67.30;;;;;;2192584;57;21012;-83
2020/12/31 04:04:44;;;;;;;6.32;3.30;;;5.70;67.30;;;;;;2407736;56;20986;-83
2020/12/31 04:07:10;;;;;;;7.37;3.20;;;5.70;67.10;;;;;;2406043;57;21000;-83
2020/12/31 04:09:36;;;;;;;6.37;3.33;;;5.80;67.10;;;;;;2406069;57;20940;-82
2020/12/31 04:12:03;;;;;;;6.05;2.62;;;5.80;67.00;;;;;;2192364;57;21348;-83
2020/12/31 04:14:29;;;;;;;5.00;2.53;;;5.80;67.10;;;;;;2408426;56;21615;-81
2020/12/31 04:16:56;;;;;;;5.43;2.65;;;5.80;67.00;;;;;;2185749;56;20966;-83
2020/12/31 04:19:22;;;;;;;6.28;2.60;;;5.80;67.00;;;;;;2189396;57;21086;-84
2020/12/31 04:21:48;;;;;;;6.07;2.58;;;5.80;66.80;;;;;;2194684;56;21857;-81
2020/12/31 04:24:15;;;;;;;5.25;2.80;;;5.80;66.80;;;;;;2400880;56;21959;-82
2020/12/31 04:26:48;;;;;;;4.78;2.55;;;5.80;66.70;;;;;;2191541;57;20960;-83
2020/12/31 04:29:14;;;;;;;5.45;2.58;;;5.80;66.60;;;;;;2192368;57;20960;-83
2020/12/31 04:31:40;;;;;;;5.25;2.70;;;5.80;66.70;;;;;;2195698;57;21316;-81
2020/12/31 04:34:07;;;;;;;5.25;2.28;;;5.80;66.60;;;;;;2408465;56;21476;-86
2020/12/31 04:36:33;;;;;;;5.22;2.60;;;5.80;66.30;;;;;;2177867;57;21012;-83
2020/12/31 04:39:00;;;;;;;5.03;2.42;;;5.80;66.40;;;;;;2191648;56;20948;-84
2020/12/31 04:41:26;;;;;;;4.22;2.20;;;5.80;66.40;;;;;;2406920;55;20965;-84
2020/12/31 04:43:52;;;;;;;4.85;2.28;;;5.80;66.40;;;;;;2195078;57;21009;-83
2020/12/31 04:46:20;;;;;;;4.85;2.33;;;5.80;66.30;;;;;;2192055;56;20984;-83
2020/12/31 04:48:49;;;;;;;5.22;2.37;;;5.80;66.30;;;;;;2191899;56;21024;-82
2020/12/31 04:51:15;;;;;;;4.95;2.10;;;5.80;67.00;;;;;;2407785;56;20994;-82
2020/12/31 04:53:42;;;;;;;5.37;2.08;;;5.80;66.20;;;;;;2192735;56;20960;-83
2020/12/31 04:56:08;;;;;;;4.07;1.95;;;5.70;66.20;;;;;;2409181;56;21014;-83
2020/12/31 04:58:34;;;;;;;4.62;2.00;;;5.70;66.10;;;;;;2192784;57;20964;-82
2020/12/31 05:01:00;;;;;;;5.45;2.20;;;5.70;66.10;;;;;;2407046;56;21024;-83
2020/12/31 05:03:27;;;;;;;4.60;2.22;;;5.70;66.10;;;;;;2201351;56;20945;-81
2020/12/31 05:05:55;;;;;;;4.37;2.12;;;5.70;66.10;;;;;;2190847;56;21028;-84
2020/12/31 05:08:26;;;;;;;3.60;1.73;;;5.70;66.30;;;;;;2191161;57;20941;-82
2020/12/31 05:10:53;;;;;;;3.97;2.08;;;5.70;66.20;;;;;;2407050;56;22080;-82
2020/12/31 05:13:19;;;;;;;4.07;2.00;;;5.70;66.10;;;;;;2407238;56;20964;-83
2020/12/31 05:15:46;;;;;;;4.10;1.90;;;5.70;66.20;;;;;;2196222;56;21013;-82
2020/12/31 05:18:30;;;;;;;3.42;1.85;;;5.70;66.30;;;;;;2192431;57;20972;-82
2020/12/31 05:20:57;;;;;;;4.10;1.90;;;5.70;65.90;;;;;;2406208;56;20948;-83
2020/12/31 05:23:27;;;;;;;4.25;1.62;;;5.70;66.30;;;;;;2193267;57;20998;-82
2020/12/31 05:25:54;;;;;;;3.70;1.80;;;5.70;66.20;;;;;;2407100;56;21005;-81
2020/12/31 05:28:28;;;;;;;2.87;1.42;;;5.70;66.30;;;;;;2192431;57;20982;-83
2020/12/31 05:30:58;;;;;;;3.55;1.62;;;5.70;66.20;;;;;;2406555;57;21825;-83
2020/12/31 05:33:26;;;;;;;3.70;1.65;;;5.70;66.20;;;;;;2407476;56;21017;-83
2020/12/31 05:35:53;;;;;;;4.53;1.70;;;5.80;66.30;;;;;;2194625;56;21029;-83
2020/12/31 05:38:20;;;;;;;2.87;1.33;;;5.80;66.40;;;;;;2406616;57;21504;-82
2020/12/31 05:41:00;;;;;;;2.97;1.30;;;5.80;66.60;;;;;;2192014;56;21851;-82
2020/12/31 05:43:26;;;;;;;4.12;1.80;;;5.80;66.00;;;;;;2407639;56;20933;-83
2020/12/31 05:46:11;;;;;;;2.97;1.33;;;5.80;66.10;;;;;;2407144;57;20956;-84
2020/12/31 05:48:38;;;;;;;3.37;1.73;;;5.90;65.60;;;;;;2192936;56;20944;-83
2020/12/31 05:51:32;;;;;;;2.85;1.17;;;5.90;65.70;;;;;;2191828;57;21013;-83
2020/12/31 05:54:09;;;;;;;2.80;1.20;;;5.90;65.40;;;;;;2193481;56;21004;-84
2020/12/31 05:56:38;;;;;;;3.78;1.27;;;5.90;65.60;;;;;;2193256;57;21048;-82
2020/12/31 05:59:15;;;;;;;4.12;1.87;;;5.90;65.80;;;;;;2192846;57;21116;-84
2020/12/31 06:01:54;;;;;;;3.33;1.30;;;5.90;65.90;;;;;;2175557;57;20965;-81
2020/12/31 06:04:21;;;;;;;2.60;1.15;;;6.00;65.70;;;;;;2407234;57;21060;-84
2020/12/31 06:06:52;;;;;;;2.80;1.33;;;6.00;65.90;;;;;;2406910;56;20965;-82
2020/12/31 06:09:31;;;;;;;2.62;1.20;;;6.00;65.70;;;;;;2406055;56;21028;-85
2020/12/31 06:12:02;;;;;;;2.75;1.20;;;6.00;65.40;;;;;;2191842;57;21008;-82
2020/12/31 06:14:29;;;;;;;2.17;0.90;;;6.10;65.50;;;;;;2407167;57;20972;-81
2020/12/31 06:17:08;;;;;;;3.03;1.15;;;6.10;65.60;;;;;;2192091;56;20980;-81
2020/12/31 06:19:40;;;;;;;3.17;1.30;;;6.10;65.10;;;;;;2192116;57;20995;-83
2020/12/31 06:22:08;;;;;;;3.12;1.45;;;6.10;65.20;;;;;;2195427;56;21919;-86
2020/12/31 06:24:38;;;;;;;3.50;1.50;;;6.10;65.20;;;;;;2407374;55;20948;-83
2020/12/31 06:28:59;;;;;;;3.28;1.58;;;6.20;65.10;;;;;;2192389;56;20968;-81
2020/12/31 06:31:26;;;;;;;3.28;1.45;;;6.20;63.60;;;;;;2192702;57;21028;-82
2020/12/31 06:33:52;;;;;;;3.95;1.98;;;6.20;64.90;;;;;;2196142;56;20945;-83
2020/12/31 06:36:18;;;;;;;3.33;1.30;;;6.20;64.80;;;;;;2391023;56;20983;-84
2020/12/31 06:38:47;;;;;;;2.80;1.05;;;6.20;64.80;;;;;;2192250;56;20941;-84
2020/12/31 06:48:02;;;;;;;2.35;1.05;;;6.30;64.90;;;;;;2192554;56;21032;-84
2020/12/31 06:51:34;;;;;;;2.55;1.42;;;6.40;63.80;;;;;;2406472;56;21807;-84
2020/12/31 06:54:00;;;;;;;2.47;1.27;;;6.50;64.00;;;;;;2193247;57;21000;-83
2020/12/31 06:56:48;;;;;;;2.85;1.23;;;6.50;63.90;;;;;;2195504;57;21026;-85
2020/12/31 06:59:24;;;;;;;2.00;0.85;;;6.50;63.30;;;;;;2192848;57;20980;-84
2020/12/31 07:01:51;;;;;;;3.58;1.35;;;6.60;63.80;;;;;;2406915;56;20986;-82
2020/12/31 07:04:36;;;;;;;2.70;1.10;;;6.60;64.20;;;;;;2192717;56;21016;-82
2020/12/31 07:07:24;;;;;;;2.08;0.88;;;6.70;63.20;;;;;;2406840;57;21005;-83
2020/12/31 07:09:52;;;;;;;2.22;1.00;;;6.70;63.20;;;;;;2381244;57;20964;-82
2020/12/31 07:12:41;;;;;;;1.75;0.90;;;6.70;64.00;;;;;;2175106;57;21012;-82
2020/12/31 07:15:08;;;;;;;3.50;1.50;;;6.80;63.70;;;;;;2409577;56;20997;-83
2020/12/31 07:17:35;;;;;;;2.92;1.20;;;6.80;64.20;;;;;;2394878;56;20960;-82
2020/12/31 07:20:02;;;;;;;2.05;0.93;;;6.80;64.30;;;;;;2406471;57;20948;-84
2020/12/31 07:22:29;;;;;;;2.20;0.80;;;6.90;64.40;;;;;;2192941;56;21364;-82
2020/12/31 07:25:08;;;;;;;1.92;0.80;;;6.90;64.50;;;;;;2192206;57;20980;-81
2020/12/31 07:27:38;;;;;;;2.22;1.00;;;6.90;64.30;;;;;;2196562;56;21090;-84
2020/12/31 07:30:12;;;;;;;1.73;0.80;;;7.00;64.60;;;;;;2404531;57;21586;-85
2020/12/31 07:34:30;;;;;;;2.00;0.80;;;7.00;64.30;;;;;;2192368;56;21433;-83
2020/12/31 07:37:06;;;;;;;2.37;0.90;;;7.00;63.20;;;;;;2195681;56;21008;-86
2020/12/31 07:39:34;;;;;;;3.50;1.30;;;7.00;64.50;;;;;;2405889;57;22166;-82
2020/12/31 07:42:17;;;;;;;3.33;1.17;;;7.10;64.70;;;;;;2176662;56;21095;-82
2020/12/31 07:44:55;;;;;;;2.72;1.20;;;7.10;64.10;;;;;;2407520;56;21083;-85
2020/12/31 07:47:23;;;;;;;2.90;1.10;;;7.10;64.30;;;;;;2406972;56;20980;-82
2020/12/31 07:49:53;;;;;;;2.10;0.80;;;7.10;64.40;;;;;;2383058;57;20962;-82
2020/12/31 07:53:01;;;;;;;3.75;1.73;;;7.20;64.50;;;;;;2401703;56;21044;-82
2020/12/31 07:55:35;;;;;;;3.70;1.40;;;7.20;64.50;;;;;;2388886;56;20956;-85
2020/12/31 07:59:15;;;;;;;2.78;1.00;;;7.20;64.60;;;;;;2397384;56;21035;-83
2020/12/31 08:02:28;;;;;;;5.28;1.90;;;7.30;63.50;;;;;;2396830;56;21070;-82
2020/12/31 08:34:45;;;;;;;3.92;1.12;;;7.40;63.90;;;;;;2196546;56;23145;-82
2020/12/31 08:37:17;;;;;;;2.15;1.05;;;7.60;62.00;;;;;;2404614;57;21106;-85
2020/12/31 08:39:59;;;;;;;3.08;1.17;;;7.50;62.10;;;;;;2399552;56;22394;-83
2020/12/31 08:42:29;;;;;;;2.95;1.27;;;7.50;62.20;;;;;;2397816;56;21483;-85
2020/12/31 08:54:18;;;;;;;2.60;1.02;;;7.40;62.10;;;;;;2197816;56;21125;-82
2020/12/31 08:56:45;;;;;;;2.80;1.23;;;7.40;62.80;;;;;;2406080;56;21438;-83
2020/12/31 08:59:16;;;;;;;3.00;0.80;;;7.40;63.10;;;;;;2406048;57;21861;-82
2020/12/31 09:01:43;;;;;;;2.60;1.12;;;7.30;63.10;;;;;;2406259;56;21052;-81
2020/12/31 09:04:20;;;;;;;3.40;1.10;;;7.30;63.00;;;;;;2411729;56;21029;-82
2020/12/31 09:06:57;;;;;;;2.87;1.10;;;7.30;62.60;;;;;;2398171;56;21437;-84
2020/12/31 09:09:25;;;;;;;3.62;1.17;;;7.30;63.00;;;;;;2397406;56;21040;-82
2020/12/31 09:12:08;;;;;;;3.20;1.20;;;7.30;62.90;;;;;;2196461;56;20997;-82
2020/12/31 09:14:36;;;;;;;5.75;2.35;;;7.30;63.80;;;;;;2368258;57;20976;-82
2020/12/31 09:17:24;;;;;;;5.65;2.72;;;7.30;63.40;;;;;;2396045;56;21044;-83
2020/12/31 09:19:53;;;;;;;9.13;3.28;;;7.30;63.10;;;;;;2407630;56;20941;-82
2020/12/31 09:22:20;;;;;;;11.07;4.07;;;7.30;63.40;;;;;;2406345;57;20973;-84
2020/12/31 09:24:47;;;;;;;18.87;7.62;;;7.40;63.10;;;;;;2408841;56;20998;-83
2020/12/31 09:27:26;;;;;;;18.40;8.30;;;7.20;63.30;;;;;;2393663;56;21627;-83
2020/12/31 09:29:56;;;;;;;13.95;6.25;;;7.20;63.10;;;;;;2390816;56;20963;-84
2020/12/31 09:32:22;;;;;;;11.18;5.68;;;7.20;63.40;;;;;;2191492;57;20953;-81
2020/12/31 09:34:49;;;;;;;8.63;3.97;;;7.10;63.30;;;;;;2407445;56;20980;-84
2020/12/31 09:37:16;;;;;;;6.32;3.00;;;7.10;63.60;;;;;;2406572;56;21127;-82
2020/12/31 09:39:44;;;;;;;7.07;3.08;;;7.10;64.20;;;;;;2406073;56;22066;-83
2020/12/31 09:42:11;;;;;;;4.45;2.05;;;7.10;63.90;;;;;;2382602;57;20999;-81
2020/12/31 09:44:38;;;;;;;5.93;2.80;;;7.10;64.00;;;;;;2408619;56;20953;-81
2020/12/31 09:47:06;;;;;;;3.05;1.62;;;7.00;64.00;;;;;;2198371;56;21101;-81
2020/12/31 09:49:32;;;;;;;2.65;1.15;;;7.00;64.10;;;;;;2406966;56;20957;-81
2020/12/31 09:52:00;;;;;;;2.90;1.33;;;7.00;64.30;;;;;;2406818;57;20953;-82
2020/12/31 09:54:26;;;;;;;5.45;2.58;;;7.00;64.50;;;;;;2406846;56;21009;-83
2020/12/31 09:56:53;;;;;;;3.70;1.73;;;7.00;64.30;;;;;;2407212;57;20945;-85
2020/12/31 09:59:21;;;;;;;3.55;1.10;;;7.00;64.60;;;;;;2407104;56;20952;-84
2020/12/31 10:01:48;;;;;;;3.45;1.40;;;7.00;64.80;;;;;;2196601;56;20950;-82
2020/12/31 10:04:15;;;;;;;2.92;1.15;;;7.00;64.90;;;;;;2407011;56;21524;-83
2020/12/31 10:06:45;;;;;;;2.05;1.00;;;7.00;64.90;;;;;;2409086;56;21031;-82
2020/12/31 10:09:14;;;;;;;2.20;1.05;;;7.00;65.00;;;;;;2272703;56;2824177;-82
2020/12/31 10:11:53;;;;;;;3.35;1.12;;;7.00;65.40;;;;;;2380079;56;20965;-82
2020/12/31 10:14:20;;;;;;;4.62;1.20;;;7.00;65.40;;;;;;2383459;56;21063;-83
2020/12/31 10:16:47;;;;;;;5.40;2.10;;;7.00;65.40;;;;;;2195800;57;20995;-83
2020/12/31 10:19:13;;;;;;;3.92;1.60;;;7.00;65.50;;;;;;2387612;56;20952;-85
2020/12/31 10:21:41;;;;;;;2.97;1.20;;;7.20;65.70;;;;;;2406351;56;21080;-83
2020/12/31 10:24:07;;;;;;;2.90;1.48;;;7.10;65.70;;;;;;2408547;56;21001;-82
2020/12/31 10:26:34;;;;;;;2.60;1.10;;;7.10;65.60;;;;;;2406574;56;21036;-85
2020/12/31 10:29:01;;;;;;;3.10;1.42;;;7.10;65.70;;;;;;2399606;56;20968;-82
2020/12/31 10:31:33;;;;;;;3.67;1.70;;;7.10;65.60;;;;;;2397260;56;21442;-82
2020/12/31 10:34:06;;;;;;;3.35;1.33;;;7.10;65.70;;;;;;2409768;56;20957;-82
2020/12/31 10:36:35;;;;;;;2.92;1.02;;;7.10;65.60;;;;;;2196004;56;20994;-82
2020/12/31 10:39:02;;;;;;;2.80;1.02;;;7.10;65.70;;;;;;2194526;57;21455;-84
2020/12/31 10:41:34;;;;;;;2.62;1.10;;;7.10;65.70;;;;;;2406609;57;20968;-83
2020/12/31 10:44:01;;;;;;;2.30;0.90;;;7.20;65.50;;;;;;2197189;56;21053;-84
2020/12/31 10:46:27;;;;;;;2.70;1.20;;;7.20;65.80;;;;;;2402952;55;20963;-81
2020/12/31 10:48:54;;;;;;;5.10;1.00;;;7.20;65.80;;;;;;2407584;56;20994;-84
2020/12/31 10:51:26;;;;;;;3.95;1.70;;;7.20;66.10;;;;;;2380984;56;20985;-85
2020/12/31 10:54:25;;;;;;;2.83;1.30;;;7.20;66.10;;;;;;2179569;57;21060;-83
2020/12/31 10:56:57;;;;;;;3.10;1.30;;;7.20;66.10;;;;;;2406546;56;21312;-82
2020/12/31 10:59:24;;;;;;;3.80;1.67;;;7.30;66.30;;;;;;2395837;56;21374;-82
2020/12/31 11:01:52;;;;;;;2.62;1.10;;;7.30;66.30;;;;;;2192763;56;21799;-82
2020/12/31 11:04:32;;;;;;;3.15;1.48;;;7.30;66.40;;;;;;2198706;56;21135;-81
2020/12/31 11:12:56;;;;;;;2.75;1.05;;;7.30;66.20;;;;;;2174577;57;20997;-83
2020/12/31 11:15:22;;;;;;;2.70;1.00;;;7.40;66.50;;;;;;2405580;57;21987;-83
2020/12/31 11:17:50;;;;;;;3.00;1.50;;;7.50;66.60;;;;;;2408547;56;21568;-82
2020/12/31 11:20:58;;;;;;;5.57;1.80;;;7.50;66.60;;;;;;2403112;56;21829;-82
2020/12/31 15:57:26;;;;;;;6.95;3.40;;;7.90;66.60;;;;;;2301117;58;21145;-82
2020/12/31 16:23:57;;;;;;;3.55;1.60;;;7.90;66.90;;;;;;2210288;62;21571;-82
2020/12/31 16:26:50;;;;;;;3.45;1.75;;;7.80;67.00;;;;;;2219293;60;21898;-82
2020/12/31 16:29:25;;;;;;;3.10;1.60;;;7.60;67.20;;;;;;2242928;60;20981;-82
2020/12/31 16:31:52;;;;;;;3.05;1.40;;;7.50;67.50;;;;;;2123693;58;21013;-82
2020/12/31 16:34:22;;;;;;;3.30;1.50;;;7.50;67.80;;;;;;2183337;56;21844;-82
2020/12/31 16:36:51;;;;;;;3.75;1.65;;;7.50;68.00;;;;;;2193416;56;20992;-81
2020/12/31 16:42:27;;;;;;;3.50;1.52;;;7.40;68.30;;;;;;2198183;56;21389;-83
2020/12/31 16:44:56;;;;;;;3.60;1.40;;;7.40;68.40;;;;;;2381246;56;21055;-81
2020/12/31 16:47:26;;;;;;;3.92;1.60;;;7.40;68.40;;;;;;2200522;56;21009;-82
2020/12/31 16:50:21;;;;;;;2.97;1.30;;;7.40;68.50;;;;;;2400795;56;21023;-83
2020/12/31 16:52:50;;;;;;;2.75;1.30;;;7.40;68.70;;;;;;2390253;56;21133;-81
2020/12/31 16:55:21;;;;;;;3.10;1.37;;;7.40;68.80;;;;;;2396566;56;21044;-84
2020/12/31 16:58:11;;;;;;;2.92;1.42;;;7.40;68.80;;;;;;2199167;57;20981;-82
2020/12/31 17:00:40;;;;;;;3.40;1.77;;;7.40;69.00;;;;;;2400030;56;20977;-84
2020/12/31 17:03:18;;;;;;;3.25;1.50;;;7.40;69.00;;;;;;2386238;56;21160;-83
2020/12/31 17:05:52;;;;;;;3.58;1.58;;;7.40;69.10;;;;;;2397523;56;21985;-83
2020/12/31 17:08:43;;;;;;;3.10;1.50;;;7.40;69.10;;;;;;2385004;56;21057;-83
2020/12/31 17:11:12;;;;;;;4.37;1.65;;;7.40;69.10;;;;;;2401088;56;21910;-81
2020/12/31 17:13:43;;;;;;;4.18;1.80;;;7.40;69.20;;;;;;2398069;56;21029;-82
2020/12/31 17:16:19;;;;;;;3.90;1.73;;;7.40;69.30;;;;;;2382750;57;21040;-80
2020/12/31 17:18:46;;;;;;;4.15;1.80;;;7.40;69.20;;;;;;2407774;57;21068;-83
2020/12/31 17:21:32;;;;;;;4.50;1.98;;;7.40;69.40;;;;;;2193734;57;21782;-82
2020/12/31 17:24:19;;;;;;;4.45;2.00;;;7.40;69.50;;;;;;2399246;57;20949;-84
2020/12/31 17:26:55;;;;;;;4.43;1.77;;;7.40;69.50;;;;;;2196499;56;21404;-83
2020/12/31 17:29:21;;;;;;;3.85;1.80;;;7.40;69.70;;;;;;2408113;56;20916;-80
2020/12/31 17:32:39;;;;;;;5.47;2.15;;;7.60;69.90;;;;;;2407362;56;21047;-85
2020/12/31 17:35:26;;;;;;;4.40;2.00;;;7.50;69.80;;;;;;2394781;56;20972;-82
2020/12/31 17:38:01;;;;;;;4.20;1.87;;;7.50;69.80;;;;;;2198135;56;21995;-84
2020/12/31 22:46:21;;;;;;;8.15;4.78;;;7.70;70.30;;;;;;2342330;57;21129;-84
